sensor_id;sensor_type;location;lat;lon;timestamp;pressure;altitude;pressure_sealevel;temperature;humidity
5284;BME280;15377;48.540;9.268;2023-08-12T00:01:48;97772.53;;;18.26;100.00
5284;BME280;15377;48.540;9.268;2023-08-12T00:04:13;97756.91;;;18.12;100.00
5284;BME280;15377;48.540;9.268;2023-08-12T00:06:40;97755.44;;;18.00;100.00
5284;BME280;15377;48.540;9.268;2023-08-12T00:09:06;97763.00;;;18.11;100.00
5284;BME280;15377;48.540;9.268;2023-08-12T00:11:33;97763.97;;;18.13;100.00
5284;BME280;15377;48.540;9.268;2023-08-12T00:13:58;97763.50;;;18.09;100.00
5284;BME280;15377;48.540;9.268;2023-08-12T00:16:23;97735.47;;;17.91;100.00
5284;BME280;15377;48.540;9.268;2023-08-12T00:18:49;97755.22;;;17.98;100.00
5284;BME280;15377;48.540;9.268;2023-08-12T00:21:14;97756.25;;;17.90;100.00
5284;BME280;15377;48.540;9.268;2023-08-12T00:23:40;97746.88;;;17.87;100.00
5284;BME280;15377;48.540;9.268;2023-08-12T00:26:07;97754.47;;;17.92;100.00
5284;BME280;15377;48.540;9.268;2023-08-12T00:28:33;97738.22;;;17.96;100.00
5284;BME280;15377;48.540;9.268;2023-08-12T00:30:59;97737.53;;;17.90;100.00
5284;BME280;15377;48.540;9.268;2023-08-12T00:33:24;97738.06;;;17.83;100.00
5284;BME280;15377;48.540;9.268;2023-08-12T00:35:49;97726.69;;;17.70;100.00
5284;BME280;15377;48.540;9.268;2023-08-12T00:38:15;97733.31;;;17.67;100.00
5284;BME280;15377;48.540;9.268;2023-08-12T00:40:40;97722.97;;;17.46;100.00
5284;BME280;15377;48.540;9.268;2023-08-12T00:43:06;97734.59;;;17.50;100.00
5284;BME280;15377;48.540;9.268;2023-08-12T00:45:31;97728.06;;;17.36;100.00
5284;BME280;15377;48.540;9.268;2023-08-12T00:47:57;97720.22;;;17.29;100.00
5284;BME280;15377;48.540;9.268;2023-08-12T00:50:23;97718.19;;;17.24;100.00
5284;BME280;15377;48.540;9.268;2023-08-12T00:52:49;97711.63;;;17.16;100.00
5284;BME280;15377;48.540;9.268;2023-08-12T00:55:15;97710.88;;;17.10;100.00
5284;BME280;15377;48.540;9.268;2023-08-12T00:57:41;97714.19;;;17.03;100.00
5284;BME280;15377;48.540;9.268;2023-08-12T01:00:07;97701.00;;;17.09;100.00
5284;BME280;15377;48.540;9.268;2023-08-12T01:02:33;97725.53;;;17.27;100.00
5284;BME280;15377;48.540;9.268;2023-08-12T01:04:58;97712.38;;;17.28;100.00
5284;BME280;15377;48.540;9.268;2023-08-12T01:07:24;97716.69;;;17.23;100.00
5284;BME280;15377;48.540;9.268;2023-08-12T01:09:49;97712.88;;;17.26;100.00
5284;BME280;15377;48.540;9.268;2023-08-12T01:12:36;97714.13;;;17.25;100.00
5284;BME280;15377;48.540;9.268;2023-08-12T01:15:07;97701.00;;;17.20;100.00
5284;BME280;15377;48.540;9.268;2023-08-12T01:17:34;97712.13;;;17.20;100.00
5284;BME280;15377;48.540;9.268;2023-08-12T01:20:02;97708.59;;;17.20;100.00
5284;BME280;15377;48.540;9.268;2023-08-12T01:22:34;97703.28;;;17.16;100.00
5284;BME280;15377;48.540;9.268;2023-08-12T01:25:05;97691.66;;;17.18;100.00
5284;BME280;15377;48.540;9.268;2023-08-12T01:27:30;97697.72;;;17.27;100.00
5284;BME280;15377;48.540;9.268;2023-08-12T01:29:56;97681.28;;;17.18;100.00
5284;BME280;15377;48.540;9.268;2023-08-12T01:35:24;97671.91;;;17.27;100.00
5284;BME280;15377;48.540;9.268;2023-08-12T01:37:52;97688.81;;;17.34;100.00
5284;BME280;15377;48.540;9.268;2023-08-12T01:40:19;97682.50;;;17.34;100.00
5284;BME280;15377;48.540;9.268;2023-08-12T01:42:45;97677.25;;;17.19;100.00
5284;BME280;15377;48.540;9.268;2023-08-12T01:45:11;97681.53;;;17.20;100.00
5284;BME280;15377;48.540;9.268;2023-08-12T01:47:36;97660.06;;;17.10;100.00
5284;BME280;15377;48.540;9.268;2023-08-12T01:50:02;97675.97;;;17.15;100.00
5284;BME280;15377;48.540;9.268;2023-08-12T01:52:28;97676.50;;;17.13;100.00
5284;BME280;15377;48.540;9.268;2023-08-12T01:54:54;97666.88;;;17.36;100.00
5284;BME280;15377;48.540;9.268;2023-08-12T01:57:19;97685.75;;;17.54;100.00
5284;BME280;15377;48.540;9.268;2023-08-12T01:59:45;97675.09;;;17.69;100.00
5284;BME280;15377;48.540;9.268;2023-08-12T02:02:10;97680.38;;;17.73;100.00
5284;BME280;15377;48.540;9.268;2023-08-12T02:04:36;97682.13;;;17.76;100.00
5284;BME280;15377;48.540;9.268;2023-08-12T02:07:03;97673.56;;;17.68;100.00
5284;BME280;15377;48.540;9.268;2023-08-12T02:09:28;97665.97;;;17.69;100.00
5284;BME280;15377;48.540;9.268;2023-08-12T02:11:54;97678.88;;;17.72;100.00
5284;BME280;15377;48.540;9.268;2023-08-12T02:14:19;97662.72;;;17.65;100.00
5284;BME280;15377;48.540;9.268;2023-08-12T02:16:44;97667.50;;;17.64;100.00
5284;BME280;15377;48.540;9.268;2023-08-12T02:19:10;97664.47;;;17.62;100.00
5284;BME280;15377;48.540;9.268;2023-08-12T02:21:35;97673.56;;;17.68;100.00
5284;BME280;15377;48.540;9.268;2023-08-12T02:24:01;97680.81;;;17.88;100.00
5284;BME280;15377;48.540;9.268;2023-08-12T02:26:27;97650.22;;;17.82;100.00
5284;BME280;15377;48.540;9.268;2023-08-12T02:28:52;97679.97;;;18.04;100.00
5284;BME280;15377;48.540;9.268;2023-08-12T02:31:17;97645.41;;;17.83;100.00
5284;BME280;15377;48.540;9.268;2023-08-12T02:33:43;97654.25;;;17.81;100.00
5284;BME280;15377;48.540;9.268;2023-08-12T02:36:08;97660.81;;;17.89;100.00
5284;BME280;15377;48.540;9.268;2023-08-12T02:38:34;97670.44;;;17.88;100.00
5284;BME280;15377;48.540;9.268;2023-08-12T02:41:00;97669.72;;;17.82;100.00
5284;BME280;15377;48.540;9.268;2023-08-12T02:43:25;97660.56;;;17.87;100.00
5284;BME280;15377;48.540;9.268;2023-08-12T02:45:51;97658.72;;;18.01;100.00
5284;BME280;15377;48.540;9.268;2023-08-12T02:48:16;97660.19;;;18.13;100.00
5284;BME280;15377;48.540;9.268;2023-08-12T02:50:41;97649.00;;;18.18;100.00
5284;BME280;15377;48.540;9.268;2023-08-12T02:53:07;97653.06;;;18.17;100.00
5284;BME280;15377;48.540;9.268;2023-08-12T02:55:33;97657.91;;;18.11;100.00
5284;BME280;15377;48.540;9.268;2023-08-12T02:57:59;97641.31;;;17.89;100.00
5284;BME280;15377;48.540;9.268;2023-08-12T03:00:24;97643.16;;;17.76;100.00
5284;BME280;15377;48.540;9.268;2023-08-12T03:02:50;97642.50;;;17.59;100.00
5284;BME280;15377;48.540;9.268;2023-08-12T03:05:15;97637.25;;;17.44;100.00
5284;BME280;15377;48.540;9.268;2023-08-12T03:07:41;97646.34;;;17.39;100.00
5284;BME280;15377;48.540;9.268;2023-08-12T03:10:07;97645.84;;;17.35;100.00
5284;BME280;15377;48.540;9.268;2023-08-12T03:12:32;97632.94;;;17.49;100.00
5284;BME280;15377;48.540;9.268;2023-08-12T03:14:57;97627.03;;;17.63;100.00
5284;BME280;15377;48.540;9.268;2023-08-12T03:17:23;97634.53;;;17.79;100.00
5284;BME280;15377;48.540;9.268;2023-08-12T03:19:48;97632.50;;;17.85;100.00
5284;BME280;15377;48.540;9.268;2023-08-12T03:22:14;97626.41;;;17.81;100.00
5284;BME280;15377;48.540;9.268;2023-08-12T03:24:39;97617.38;;;17.75;100.00
5284;BME280;15377;48.540;9.268;2023-08-12T03:27:05;97612.34;;;17.68;100.00
5284;BME280;15377;48.540;9.268;2023-08-12T03:29:30;97612.09;;;17.66;100.00
5284;BME280;15377;48.540;9.268;2023-08-12T03:31:55;97625.44;;;17.73;100.00
5284;BME280;15377;48.540;9.268;2023-08-12T03:34:21;97625.72;;;17.70;100.00
5284;BME280;15377;48.540;9.268;2023-08-12T03:36:46;97630.06;;;17.65;100.00
5284;BME280;15377;48.540;9.268;2023-08-12T03:39:14;97637.94;;;17.61;100.00
5284;BME280;15377;48.540;9.268;2023-08-12T03:41:39;97639.47;;;17.57;100.00
5284;BME280;15377;48.540;9.268;2023-08-12T03:44:05;97634.56;;;17.74;100.00
5284;BME280;15377;48.540;9.268;2023-08-12T03:46:30;97635.50;;;17.87;100.00
5284;BME280;15377;48.540;9.268;2023-08-12T03:48:56;97640.22;;;18.03;100.00
5284;BME280;15377;48.540;9.268;2023-08-12T03:51:21;97637.66;;;18.11;100.00
5284;BME280;15377;48.540;9.268;2023-08-12T03:53:47;97633.56;;;18.17;100.00
5284;BME280;15377;48.540;9.268;2023-08-12T03:56:12;97636.25;;;18.28;100.00
5284;BME280;15377;48.540;9.268;2023-08-12T03:58:40;97624.13;;;18.31;100.00
5284;BME280;15377;48.540;9.268;2023-08-12T04:01:06;97638.69;;;18.48;100.00
5284;BME280;15377;48.540;9.268;2023-08-12T04:03:31;97620.44;;;18.47;100.00
5284;BME280;15377;48.540;9.268;2023-08-12T04:05:57;97641.91;;;18.58;100.00
5284;BME280;15377;48.540;9.268;2023-08-12T04:08:23;97632.25;;;18.59;100.00
5284;BME280;15377;48.540;9.268;2023-08-12T04:10:48;97630.47;;;18.61;100.00
5284;BME280;15377;48.540;9.268;2023-08-12T04:13:14;97640.09;;;18.60;100.00
5284;BME280;15377;48.540;9.268;2023-08-12T04:15:40;97644.47;;;18.50;100.00
5284;BME280;15377;48.540;9.268;2023-08-12T04:18:06;97642.47;;;18.51;100.00
5284;BME280;15377;48.540;9.268;2023-08-12T04:20:31;97631.81;;;18.49;100.00
5284;BME280;15377;48.540;9.268;2023-08-12T04:22:56;97635.84;;;18.54;100.00
5284;BME280;15377;48.540;9.268;2023-08-12T04:25:22;97649.97;;;18.61;100.00
5284;BME280;15377;48.540;9.268;2023-08-12T04:27:47;97633.00;;;18.59;100.00
5284;BME280;15377;48.540;9.268;2023-08-12T04:30:15;97629.41;;;18.64;100.00
5284;BME280;15377;48.540;9.268;2023-08-12T04:32:41;97627.81;;;18.74;100.00
5284;BME280;15377;48.540;9.268;2023-08-12T04:35:07;97639.16;;;18.82;100.00
5284;BME280;15377;48.540;9.268;2023-08-12T04:37:32;97664.94;;;18.87;100.00
5284;BME280;15377;48.540;9.268;2023-08-12T04:39:58;97656.63;;;18.82;100.00
5284;BME280;15377;48.540;9.268;2023-08-12T04:42:23;97649.78;;;18.83;100.00
5284;BME280;15377;48.540;9.268;2023-08-12T04:44:49;97657.09;;;18.86;100.00
5284;BME280;15377;48.540;9.268;2023-08-12T04:47:14;97652.28;;;18.86;100.00
5284;BME280;15377;48.540;9.268;2023-08-12T04:49:39;97653.97;;;18.95;100.00
5284;BME280;15377;48.540;9.268;2023-08-12T04:52:05;97652.97;;;18.92;100.00
5284;BME280;15377;48.540;9.268;2023-08-12T04:54:32;97637.25;;;18.95;100.00
5284;BME280;15377;48.540;9.268;2023-08-12T04:56:57;97652.13;;;19.03;100.00
5284;BME280;15377;48.540;9.268;2023-08-12T04:59:23;97645.44;;;19.11;100.00
5284;BME280;15377;48.540;9.268;2023-08-12T05:01:48;97648.69;;;19.15;100.00
5284;BME280;15377;48.540;9.268;2023-08-12T05:04:13;97652.72;;;19.20;100.00
5284;BME280;15377;48.540;9.268;2023-08-12T05:06:39;97641.56;;;19.20;100.00
5284;BME280;15377;48.540;9.268;2023-08-12T05:09:05;97636.47;;;19.24;100.00
5284;BME280;15377;48.540;9.268;2023-08-12T05:11:30;97647.94;;;19.39;100.00
5284;BME280;15377;48.540;9.268;2023-08-12T05:13:56;97633.47;;;19.40;100.00
5284;BME280;15377;48.540;9.268;2023-08-12T05:16:21;97635.16;;;19.49;100.00
5284;BME280;15377;48.540;9.268;2023-08-12T05:18:47;97634.28;;;19.59;100.00
5284;BME280;15377;48.540;9.268;2023-08-12T05:21:12;97650.13;;;19.70;100.00
5284;BME280;15377;48.540;9.268;2023-08-12T05:23:37;97649.38;;;19.69;100.00
5284;BME280;15377;48.540;9.268;2023-08-12T05:26:03;97656.59;;;19.78;100.00
5284;BME280;15377;48.540;9.268;2023-08-12T05:28:28;97654.50;;;19.84;100.00
5284;BME280;15377;48.540;9.268;2023-08-12T05:30:53;97659.88;;;19.82;100.00
5284;BME280;15377;48.540;9.268;2023-08-12T05:33:20;97669.97;;;19.85;100.00
5284;BME280;15377;48.540;9.268;2023-08-12T05:35:49;97661.78;;;19.92;100.00
5284;BME280;15377;48.540;9.268;2023-08-12T05:38:14;97643.94;;;19.95;100.00
5284;BME280;15377;48.540;9.268;2023-08-12T05:40:40;97650.84;;;20.13;100.00
5284;BME280;15377;48.540;9.268;2023-08-12T05:43:09;97645.94;;;20.19;100.00
5284;BME280;15377;48.540;9.268;2023-08-12T05:45:34;97659.97;;;20.32;100.00
5284;BME280;15377;48.540;9.268;2023-08-12T05:47:59;97659.22;;;20.31;100.00
5284;BME280;15377;48.540;9.268;2023-08-12T05:50:25;97665.31;;;20.48;100.00
5284;BME280;15377;48.540;9.268;2023-08-12T05:52:50;97668.53;;;20.52;100.00
5284;BME280;15377;48.540;9.268;2023-08-12T05:55:16;97664.28;;;20.64;100.00
5284;BME280;15377;48.540;9.268;2023-08-12T05:57:41;97666.47;;;20.84;100.00
5284;BME280;15377;48.540;9.268;2023-08-12T06:00:07;97652.97;;;20.88;100.00
5284;BME280;15377;48.540;9.268;2023-08-12T06:02:32;97665.47;;;21.00;100.00
5284;BME280;15377;48.540;9.268;2023-08-12T06:04:58;97660.00;;;21.08;100.00
5284;BME280;15377;48.540;9.268;2023-08-12T06:07:23;97662.38;;;21.17;100.00
5284;BME280;15377;48.540;9.268;2023-08-12T06:09:49;97682.22;;;21.32;100.00
5284;BME280;15377;48.540;9.268;2023-08-12T06:12:15;97658.75;;;21.48;100.00
5284;BME280;15377;48.540;9.268;2023-08-12T06:14:40;97659.84;;;21.84;100.00
5284;BME280;15377;48.540;9.268;2023-08-12T06:17:06;97661.28;;;22.11;100.00
5284;BME280;15377;48.540;9.268;2023-08-12T06:19:32;97656.88;;;22.36;100.00
5284;BME280;15377;48.540;9.268;2023-08-12T06:21:57;97628.75;;;22.08;100.00
5284;BME280;15377;48.540;9.268;2023-08-12T06:24:22;97667.66;;;22.45;100.00
5284;BME280;15377;48.540;9.268;2023-08-12T06:26:48;97670.22;;;22.56;100.00
5284;BME280;15377;48.540;9.268;2023-08-12T06:29:13;97656.25;;;22.43;100.00
5284;BME280;15377;48.540;9.268;2023-08-12T06:31:39;97663.56;;;22.46;100.00
5284;BME280;15377;48.540;9.268;2023-08-12T06:34:04;97666.31;;;22.59;100.00
5284;BME280;15377;48.540;9.268;2023-08-12T06:36:30;97678.44;;;22.74;100.00
5284;BME280;15377;48.540;9.268;2023-08-12T06:38:55;97666.19;;;22.85;100.00
5284;BME280;15377;48.540;9.268;2023-08-12T06:41:20;97667.13;;;23.07;100.00
5284;BME280;15377;48.540;9.268;2023-08-12T06:43:46;97663.97;;;23.31;100.00
5284;BME280;15377;48.540;9.268;2023-08-12T06:46:11;97662.66;;;23.60;100.00
5284;BME280;15377;48.540;9.268;2023-08-12T06:48:37;97658.56;;;23.97;100.00
5284;BME280;15377;48.540;9.268;2023-08-12T06:51:02;97672.97;;;24.36;100.00
5284;BME280;15377;48.540;9.268;2023-08-12T06:53:35;97661.25;;;24.60;100.00
5284;BME280;15377;48.540;9.268;2023-08-12T06:56:00;97657.47;;;24.65;100.00
5284;BME280;15377;48.540;9.268;2023-08-12T06:58:26;97632.28;;;24.45;100.00
5284;BME280;15377;48.540;9.268;2023-08-12T07:00:51;97651.78;;;24.50;100.00
5284;BME280;15377;48.540;9.268;2023-08-12T07:03:18;97657.00;;;24.31;100.00
5284;BME280;15377;48.540;9.268;2023-08-12T07:05:43;97648.63;;;23.88;100.00
5284;BME280;15377;48.540;9.268;2023-08-12T07:08:09;97652.41;;;23.70;100.00
5284;BME280;15377;48.540;9.268;2023-08-12T07:10:38;97669.50;;;23.72;100.00
5284;BME280;15377;48.540;9.268;2023-08-12T07:13:03;97663.66;;;23.70;100.00
5284;BME280;15377;48.540;9.268;2023-08-12T07:15:28;97660.84;;;23.70;100.00
5284;BME280;15377;48.540;9.268;2023-08-12T07:17:54;97665.88;;;23.64;100.00
5284;BME280;15377;48.540;9.268;2023-08-12T07:20:19;97659.34;;;23.69;100.00
5284;BME280;15377;48.540;9.268;2023-08-12T07:22:45;97646.94;;;23.65;100.00
5284;BME280;15377;48.540;9.268;2023-08-12T07:25:10;97638.47;;;23.85;100.00
5284;BME280;15377;48.540;9.268;2023-08-12T07:27:35;97643.19;;;23.90;100.00
5284;BME280;15377;48.540;9.268;2023-08-12T07:30:01;97643.09;;;23.83;100.00
5284;BME280;15377;48.540;9.268;2023-08-12T07:32:26;97653.97;;;23.79;100.00
5284;BME280;15377;48.540;9.268;2023-08-12T07:34:51;97643.06;;;23.75;100.00
5284;BME280;15377;48.540;9.268;2023-08-12T07:37:17;97644.31;;;23.67;100.00
5284;BME280;15377;48.540;9.268;2023-08-12T07:39:42;97650.53;;;23.65;100.00
5284;BME280;15377;48.540;9.268;2023-08-12T07:42:07;97656.16;;;23.65;100.00
5284;BME280;15377;48.540;9.268;2023-08-12T07:44:33;97654.50;;;23.77;100.00
5284;BME280;15377;48.540;9.268;2023-08-12T07:46:58;97645.38;;;23.84;100.00
5284;BME280;15377;48.540;9.268;2023-08-12T07:49:23;97656.22;;;24.16;100.00
5284;BME280;15377;48.540;9.268;2023-08-12T07:51:49;97653.66;;;24.33;100.00
5284;BME280;15377;48.540;9.268;2023-08-12T07:54:15;97647.66;;;24.36;100.00
5284;BME280;15377;48.540;9.268;2023-08-12T07:56:40;97652.56;;;24.43;100.00
5284;BME280;15377;48.540;9.268;2023-08-12T07:59:06;97647.34;;;24.62;100.00
5284;BME280;15377;48.540;9.268;2023-08-12T08:01:31;97646.25;;;24.80;100.00
5284;BME280;15377;48.540;9.268;2023-08-12T08:03:56;97659.00;;;25.11;100.00
5284;BME280;15377;48.540;9.268;2023-08-12T08:06:23;97648.50;;;25.34;100.00
5284;BME280;15377;48.540;9.268;2023-08-12T08:08:52;97629.66;;;25.59;100.00
5284;BME280;15377;48.540;9.268;2023-08-12T08:11:17;97658.47;;;26.12;100.00
5284;BME280;15377;48.540;9.268;2023-08-12T08:13:43;97644.06;;;26.33;100.00
5284;BME280;15377;48.540;9.268;2023-08-12T08:16:08;97651.03;;;26.71;100.00
5284;BME280;15377;48.540;9.268;2023-08-12T08:18:33;97656.94;;;26.83;100.00
5284;BME280;15377;48.540;9.268;2023-08-12T08:20:59;97642.25;;;26.84;100.00
5284;BME280;15377;48.540;9.268;2023-08-12T08:23:24;97651.84;;;27.13;100.00
5284;BME280;15377;48.540;9.268;2023-08-12T08:25:50;97639.41;;;27.16;100.00
5284;BME280;15377;48.540;9.268;2023-08-12T08:28:15;97622.91;;;27.05;100.00
5284;BME280;15377;48.540;9.268;2023-08-12T08:30:40;97639.03;;;27.12;100.00
5284;BME280;15377;48.540;9.268;2023-08-12T08:33:06;97647.72;;;27.14;100.00
5284;BME280;15377;48.540;9.268;2023-08-12T08:35:31;97644.22;;;27.23;100.00
5284;BME280;15377;48.540;9.268;2023-08-12T08:37:56;97655.88;;;27.27;100.00
5284;BME280;15377;48.540;9.268;2023-08-12T08:40:22;97660.38;;;27.30;100.00
5284;BME280;15377;48.540;9.268;2023-08-12T08:42:52;97653.59;;;27.50;100.00
5284;BME280;15377;48.540;9.268;2023-08-12T08:45:21;97662.56;;;27.73;100.00
5284;BME280;15377;48.540;9.268;2023-08-12T08:47:48;97655.22;;;27.94;100.00
5284;BME280;15377;48.540;9.268;2023-08-12T08:50:13;97648.78;;;28.11;100.00
5284;BME280;15377;48.540;9.268;2023-08-12T08:52:39;97660.06;;;28.28;100.00
5284;BME280;15377;48.540;9.268;2023-08-12T08:55:05;97667.84;;;28.10;100.00
5284;BME280;15377;48.540;9.268;2023-08-12T08:57:31;97662.38;;;27.95;100.00
5284;BME280;15377;48.540;9.268;2023-08-12T08:59:57;97659.03;;;27.89;100.00
5284;BME280;15377;48.540;9.268;2023-08-12T09:02:23;97653.13;;;27.78;100.00
5284;BME280;15377;48.540;9.268;2023-08-12T09:04:49;97652.28;;;27.51;100.00
5284;BME280;15377;48.540;9.268;2023-08-12T09:07:15;97647.53;;;27.53;100.00
5284;BME280;15377;48.540;9.268;2023-08-12T09:09:45;97656.63;;;27.86;100.00
5284;BME280;15377;48.540;9.268;2023-08-12T09:12:14;97662.50;;;28.14;100.00
5284;BME280;15377;48.540;9.268;2023-08-12T09:14:41;97672.25;;;28.38;100.00
5284;BME280;15377;48.540;9.268;2023-08-12T09:17:06;97665.56;;;28.43;100.00
5284;BME280;15377;48.540;9.268;2023-08-12T09:19:32;97670.56;;;28.52;100.00
5284;BME280;15377;48.540;9.268;2023-08-12T09:21:58;97653.94;;;28.65;100.00
5284;BME280;15377;48.540;9.268;2023-08-12T09:24:24;97671.34;;;28.88;100.00
5284;BME280;15377;48.540;9.268;2023-08-12T09:26:54;97666.56;;;28.91;100.00
5284;BME280;15377;48.540;9.268;2023-08-12T09:29:28;97658.72;;;28.99;100.00
5284;BME280;15377;48.540;9.268;2023-08-12T09:31:54;97666.53;;;29.17;100.00
5284;BME280;15377;48.540;9.268;2023-08-12T09:34:19;97659.84;;;29.22;100.00
5284;BME280;15377;48.540;9.268;2023-08-12T09:36:46;97640.88;;;29.51;100.00
5284;BME280;15377;48.540;9.268;2023-08-12T09:39:12;97658.06;;;29.82;100.00
5284;BME280;15377;48.540;9.268;2023-08-12T09:41:38;97658.66;;;29.90;100.00
5284;BME280;15377;48.540;9.268;2023-08-12T09:44:05;97654.16;;;30.06;100.00
5284;BME280;15377;48.540;9.268;2023-08-12T09:46:33;97649.06;;;30.33;100.00
5284;BME280;15377;48.540;9.268;2023-08-12T09:48:59;97633.09;;;30.37;100.00
5284;BME280;15377;48.540;9.268;2023-08-12T09:51:24;97641.59;;;30.66;100.00
5284;BME280;15377;48.540;9.268;2023-08-12T09:53:49;97643.06;;;30.67;100.00
5284;BME280;15377;48.540;9.268;2023-08-12T09:56:18;97614.00;;;30.78;100.00
5284;BME280;15377;48.540;9.268;2023-08-12T09:58:48;97617.09;;;30.91;100.00
5284;BME280;15377;48.540;9.268;2023-08-12T10:01:14;97616.22;;;30.89;100.00
5284;BME280;15377;48.540;9.268;2023-08-12T10:03:41;97614.34;;;31.03;100.00
5284;BME280;15377;48.540;9.268;2023-08-12T10:06:12;97602.56;;;30.97;100.00
5284;BME280;15377;48.540;9.268;2023-08-12T10:08:38;97591.47;;;31.01;100.00
5284;BME280;15377;48.540;9.268;2023-08-12T10:11:04;97598.03;;;31.03;100.00
5284;BME280;15377;48.540;9.268;2023-08-12T10:13:29;97603.19;;;30.86;100.00
5284;BME280;15377;48.540;9.268;2023-08-12T10:15:55;97599.66;;;30.76;100.00
5284;BME280;15377;48.540;9.268;2023-08-12T10:18:22;97619.75;;;30.59;100.00
5284;BME280;15377;48.540;9.268;2023-08-12T10:20:47;97605.28;;;30.45;100.00
5284;BME280;15377;48.540;9.268;2023-08-12T10:23:16;97588.06;;;30.53;100.00
5284;BME280;15377;48.540;9.268;2023-08-12T10:25:43;97584.16;;;30.58;100.00
5284;BME280;15377;48.540;9.268;2023-08-12T10:28:09;97598.88;;;30.85;100.00
5284;BME280;15377;48.540;9.268;2023-08-12T10:30:34;97600.59;;;31.51;100.00
5284;BME280;15377;48.540;9.268;2023-08-12T10:33:00;97593.13;;;32.08;100.00
5284;BME280;15377;48.540;9.268;2023-08-12T10:35:46;97587.56;;;32.54;100.00
5284;BME280;15377;48.540;9.268;2023-08-12T10:38:13;97597.56;;;32.11;92.00
5284;BME280;15377;48.540;9.268;2023-08-12T10:40:39;97599.78;;;31.18;93.13
5284;BME280;15377;48.540;9.268;2023-08-12T10:43:05;97605.69;;;31.01;98.89
5284;BME280;15377;48.540;9.268;2023-08-12T10:45:46;97616.56;;;30.74;99.17
5284;BME280;15377;48.540;9.268;2023-08-12T10:48:17;97624.22;;;30.62;100.00
5284;BME280;15377;48.540;9.268;2023-08-12T10:50:45;97620.09;;;31.66;99.67
5284;BME280;15377;48.540;9.268;2023-08-12T10:53:22;97632.34;;;31.99;89.77
5284;BME280;15377;48.540;9.268;2023-08-12T10:55:55;97624.81;;;33.48;90.77
5284;BME280;15377;48.540;9.268;2023-08-12T10:58:45;97623.19;;;34.55;79.22
5284;BME280;15377;48.540;9.268;2023-08-12T11:01:20;97623.13;;;34.41;72.68
5284;BME280;15377;48.540;9.268;2023-08-12T11:03:47;97610.66;;;34.73;70.88
5284;BME280;15377;48.540;9.268;2023-08-12T11:06:13;97628.91;;;34.93;67.93
5284;BME280;15377;48.540;9.268;2023-08-12T11:08:52;97618.59;;;34.36;66.90
5284;BME280;15377;48.540;9.268;2023-08-12T11:11:22;97617.31;;;34.39;71.68
5284;BME280;15377;48.540;9.268;2023-08-12T11:13:56;97606.25;;;34.09;70.66
5284;BME280;15377;48.540;9.268;2023-08-12T11:16:32;97619.34;;;32.83;75.74
5284;BME280;15377;48.540;9.268;2023-08-12T11:18:59;97604.53;;;32.20;79.95
5284;BME280;15377;48.540;9.268;2023-08-12T11:21:25;97587.53;;;31.78;81.60
5284;BME280;15377;48.540;9.268;2023-08-12T11:23:54;97602.16;;;32.60;80.02
5284;BME280;15377;48.540;9.268;2023-08-12T11:26:20;97607.75;;;33.73;76.06
5284;BME280;15377;48.540;9.268;2023-08-12T11:28:47;97603.38;;;34.45;72.95
5284;BME280;15377;48.540;9.268;2023-08-12T11:31:12;97588.38;;;35.51;63.46
5284;BME280;15377;48.540;9.268;2023-08-12T11:33:37;97597.38;;;35.45;56.19
5284;BME280;15377;48.540;9.268;2023-08-12T11:36:03;97578.41;;;36.52;52.15
5284;BME280;15377;48.540;9.268;2023-08-12T11:38:29;97584.63;;;37.24;48.38
5284;BME280;15377;48.540;9.268;2023-08-12T11:40:55;97581.72;;;37.07;43.57
5284;BME280;15377;48.540;9.268;2023-08-12T11:43:21;97588.81;;;37.21;42.69
5284;BME280;15377;48.540;9.268;2023-08-12T11:45:47;97573.72;;;37.69;44.18
5284;BME280;15377;48.540;9.268;2023-08-12T11:48:12;97579.50;;;38.93;42.58
5284;BME280;15377;48.540;9.268;2023-08-12T11:50:38;97572.56;;;39.20;40.87
5284;BME280;15377;48.540;9.268;2023-08-12T11:53:04;97565.91;;;39.54;39.05
5284;BME280;15377;48.540;9.268;2023-08-12T11:55:30;97573.56;;;39.87;35.97
5284;BME280;15377;48.540;9.268;2023-08-12T11:57:55;97578.31;;;39.59;36.34
5284;BME280;15377;48.540;9.268;2023-08-12T12:00:21;97569.63;;;39.37;37.51
5284;BME280;15377;48.540;9.268;2023-08-12T12:02:50;97576.25;;;39.61;37.18
5284;BME280;15377;48.540;9.268;2023-08-12T12:05:17;97568.00;;;38.93;35.61
5284;BME280;15377;48.540;9.268;2023-08-12T12:07:44;97561.56;;;38.58;38.57
5284;BME280;15377;48.540;9.268;2023-08-12T12:10:34;97574.25;;;37.98;39.28
5284;BME280;15377;48.540;9.268;2023-08-12T12:12:59;97571.72;;;36.32;42.60
5284;BME280;15377;48.540;9.268;2023-08-12T12:15:25;97592.78;;;34.86;45.75
5284;BME280;15377;48.540;9.268;2023-08-12T12:17:51;97596.59;;;34.02;49.17
5284;BME280;15377;48.540;9.268;2023-08-12T12:20:16;97607.31;;;32.96;54.53
5284;BME280;15377;48.540;9.268;2023-08-12T12:22:43;97606.13;;;32.44;58.69
5284;BME280;15377;48.540;9.268;2023-08-12T12:25:13;97606.25;;;32.13;62.37
5284;BME280;15377;48.540;9.268;2023-08-12T12:27:39;97609.31;;;32.06;64.93
5284;BME280;15377;48.540;9.268;2023-08-12T12:30:09;97621.47;;;31.65;65.49
5284;BME280;15377;48.540;9.268;2023-08-12T12:32:36;97625.56;;;31.31;68.86
5284;BME280;15377;48.540;9.268;2023-08-12T12:35:01;97643.06;;;30.67;73.36
5284;BME280;15377;48.540;9.268;2023-08-12T12:37:28;97637.59;;;29.74;77.04
5284;BME280;15377;48.540;9.268;2023-08-12T12:39:53;97642.75;;;29.49;82.83
5284;BME280;15377;48.540;9.268;2023-08-12T12:42:19;97647.13;;;29.14;86.15
5284;BME280;15377;48.540;9.268;2023-08-12T12:44:44;97651.56;;;28.98;88.84
5284;BME280;15377;48.540;9.268;2023-08-12T12:47:09;97679.44;;;28.65;91.62
5284;BME280;15377;48.540;9.268;2023-08-12T12:49:37;97702.00;;;28.56;94.50
5284;BME280;15377;48.540;9.268;2023-08-12T12:52:03;97712.94;;;27.91;94.94
5284;BME280;15377;48.540;9.268;2023-08-12T12:54:28;97737.09;;;27.51;100.00
5284;BME280;15377;48.540;9.268;2023-08-12T12:56:56;97766.63;;;27.01;100.00
5284;BME280;15377;48.540;9.268;2023-08-12T12:59:21;97782.63;;;25.75;100.00
5284;BME280;15377;48.540;9.268;2023-08-12T13:01:46;97766.38;;;24.85;100.00